createdAt,value
2023-09-09T00:00:53.295Z,3.47
2023-09-09T00:03:21.411Z,3.53
2023-09-09T00:05:49.337Z,3.80
2023-09-09T00:08:20.521Z,3.30
2023-09-09T00:10:48.274Z,3.70
2023-09-09T00:13:15.774Z,3.65
2023-09-09T00:15:42.738Z,3.22
2023-09-09T00:18:09.575Z,3.58
2023-09-09T00:20:40.219Z,3.65
2023-09-09T00:23:10.530Z,3.70
2023-09-09T00:25:41.453Z,3.65
2023-09-09T00:28:09.601Z,3.53
2023-09-09T00:30:36.625Z,3.47
2023-09-09T00:33:04.048Z,3.63
2023-09-09T00:35:34.024Z,3.58
2023-09-09T00:38:02.001Z,3.60
2023-09-09T00:40:28.864Z,3.63
2023-09-09T00:42:55.655Z,3.22
2023-09-09T00:45:22.354Z,3.60
2023-09-09T00:47:49.671Z,3.75
2023-09-09T00:50:16.575Z,3.47
2023-09-09T00:52:43.988Z,3.83
2023-09-09T00:55:15.077Z,3.80
2023-09-09T00:57:41.758Z,3.72
2023-09-09T01:00:12.225Z,4.05
2023-09-09T01:02:41.535Z,3.65
2023-09-09T01:05:10.236Z,3.55
2023-09-09T01:07:50.247Z,3.92
2023-09-09T01:10:18.507Z,3.60
2023-09-09T01:12:45.952Z,3.40
2023-09-09T01:15:14.289Z,3.65
2023-09-09T01:17:41.438Z,3.65
2023-09-09T01:20:20.896Z,3.53
2023-09-09T01:22:51.512Z,3.75
2023-09-09T01:25:18.279Z,3.55
2023-09-09T01:27:45.193Z,3.47
2023-09-09T01:30:13.111Z,3.40
2023-09-09T01:32:40.506Z,3.88
2023-09-09T01:35:08.282Z,3.92
2023-09-09T01:37:35.561Z,3.47
2023-09-09T01:40:11.387Z,3.92
2023-09-09T01:42:39.659Z,3.25
2023-09-09T01:45:06.967Z,3.42
2023-09-09T01:47:34.180Z,4.07
2023-09-09T01:50:00.917Z,3.38
2023-09-09T01:52:27.703Z,3.30
2023-09-09T01:54:55.051Z,4.07
2023-09-09T01:57:23.236Z,3.35
2023-09-09T01:59:49.874Z,4.20
2023-09-09T02:02:23.866Z,3.63
2023-09-09T02:04:50.722Z,3.60
2023-09-09T02:07:17.463Z,3.85
2023-09-09T02:09:44.234Z,3.67
2023-09-09T02:12:11.468Z,3.92
2023-09-09T02:14:38.350Z,3.88
2023-09-09T02:17:05.325Z,3.55
2023-09-09T02:19:33.346Z,4.07
2023-09-09T02:22:00.108Z,3.85
2023-09-09T02:24:26.881Z,3.38
2023-09-09T02:26:53.617Z,3.58
2023-09-09T02:29:20.340Z,3.60
2023-09-09T02:31:47.087Z,3.58
2023-09-09T02:34:14.225Z,3.42
2023-09-09T02:36:45.772Z,3.80
2023-09-09T02:39:12.642Z,3.55
2023-09-09T02:41:39.490Z,4.07
2023-09-09T02:44:06.523Z,3.55
2023-09-09T02:46:33.358Z,3.63
2023-09-09T02:49:00.194Z,3.63
2023-09-09T02:51:26.989Z,4.13
2023-09-09T02:53:53.965Z,3.55
2023-09-09T02:56:20.870Z,3.20
2023-09-09T02:58:47.508Z,3.28
2023-09-09T03:01:14.474Z,3.63
2023-09-09T03:03:41.695Z,3.60
2023-09-09T03:06:11.730Z,3.38
2023-09-09T03:08:38.490Z,3.35
2023-09-09T03:11:05.217Z,3.47
2023-09-09T03:13:32.169Z,3.35
2023-09-09T03:15:59.095Z,3.85
2023-09-09T03:18:25.939Z,3.55
2023-09-09T03:20:52.864Z,3.83
2023-09-09T03:23:20.000Z,3.50
2023-09-09T03:25:46.881Z,3.22
2023-09-09T03:28:13.564Z,3.65
2023-09-09T03:30:55.083Z,3.53
2023-09-09T03:33:22.386Z,3.53
2023-09-09T03:35:49.453Z,3.63
2023-09-09T03:38:16.632Z,3.80
2023-09-09T03:40:43.849Z,3.67
2023-09-09T03:43:10.983Z,3.42
2023-09-09T03:45:38.211Z,3.78
2023-09-09T03:48:05.769Z,3.63
2023-09-09T03:50:33.239Z,3.25
2023-09-09T03:53:00.718Z,3.33
2023-09-09T03:55:27.384Z,3.70
2023-09-09T03:57:54.529Z,3.47
2023-09-09T04:00:21.329Z,3.33
2023-09-09T04:02:48.242Z,3.95
2023-09-09T04:05:15.123Z,3.35
2023-09-09T04:07:45.281Z,3.15
2023-09-09T04:10:13.202Z,3.22
2023-09-09T04:12:40.344Z,3.25
2023-09-09T04:15:08.096Z,4.00
2023-09-09T04:17:35.131Z,3.55
2023-09-09T04:20:02.532Z,3.58
2023-09-09T04:22:29.316Z,3.55
2023-09-09T04:24:56.053Z,3.70
2023-09-09T04:27:23.401Z,3.78
2023-09-09T04:29:50.285Z,3.65
2023-09-09T04:32:17.103Z,3.22
2023-09-09T04:34:43.955Z,3.80
2023-09-09T04:37:10.780Z,3.22
2023-09-09T04:39:37.780Z,3.78
2023-09-09T04:42:04.693Z,3.88
2023-09-09T04:44:31.385Z,3.58
2023-09-09T04:46:58.236Z,3.55
2023-09-09T04:49:25.122Z,3.55
2023-09-09T04:51:51.817Z,3.85
2023-09-09T04:54:19.725Z,3.45
2023-09-09T04:56:48.235Z,3.90
2023-09-09T04:59:15.110Z,3.90
2023-09-09T05:01:43.432Z,3.38
2023-09-09T05:04:10.477Z,3.45
2023-09-09T05:06:37.372Z,3.47
2023-09-09T05:09:04.041Z,3.72
2023-09-09T05:11:31.474Z,3.78
2023-09-09T05:13:58.160Z,3.45
2023-09-09T05:16:25.359Z,4.03
2023-09-09T05:18:52.204Z,3.75
2023-09-09T05:21:19.171Z,3.80
2023-09-09T05:23:46.152Z,4.30
2023-09-09T05:26:13.019Z,3.90
2023-09-09T05:28:39.781Z,4.15
2023-09-09T05:31:07.629Z,3.53
2023-09-09T05:33:34.831Z,4.22
2023-09-09T05:36:01.932Z,4.13
2023-09-09T05:38:30.698Z,4.20
2023-09-09T05:40:57.537Z,3.83
2023-09-09T05:43:24.284Z,3.60
2023-09-09T05:45:51.057Z,3.92
2023-09-09T05:48:17.755Z,3.60
2023-09-09T05:50:44.679Z,4.18
2023-09-09T05:53:11.728Z,3.92
2023-09-09T05:55:38.462Z,3.78
2023-09-09T05:58:05.671Z,4.05
2023-09-09T06:00:35.514Z,4.13
2023-09-09T06:03:02.256Z,4.10
2023-09-09T06:05:29.074Z,4.22
2023-09-09T06:07:57.729Z,4.28
2023-09-09T06:10:24.491Z,4.13
2023-09-09T06:12:51.372Z,4.40
2023-09-09T06:15:18.086Z,5.15
2023-09-09T06:17:46.545Z,4.60
2023-09-09T06:20:15.605Z,4.60
2023-09-09T06:22:42.277Z,4.72
2023-09-09T06:25:09.774Z,4.20
2023-09-09T06:27:36.608Z,4.78
2023-09-09T06:30:03.460Z,3.92
2023-09-09T06:32:30.297Z,4.15
2023-09-09T06:34:57.297Z,4.22
2023-09-09T06:37:25.073Z,4.57
2023-09-09T06:39:51.843Z,4.07
2023-09-09T06:42:18.575Z,4.32
2023-09-09T06:44:45.280Z,4.32
2023-09-09T06:47:12.685Z,4.18
2023-09-09T06:49:39.703Z,4.55
2023-09-09T06:52:06.801Z,4.18
2023-09-09T06:54:33.610Z,5.05
2023-09-09T06:57:00.464Z,4.60
2023-09-09T06:59:27.209Z,4.82
2023-09-09T07:01:53.935Z,4.75
2023-09-09T07:04:20.742Z,4.82
2023-09-09T07:07:04.915Z,4.80
2023-09-09T07:09:34.784Z,4.70
2023-09-09T07:12:01.528Z,5.47
2023-09-09T07:14:28.552Z,4.93
2023-09-09T07:16:56.155Z,4.60
2023-09-09T07:19:23.041Z,5.25
2023-09-09T07:21:50.035Z,5.22
2023-09-09T07:24:16.751Z,5.45
2023-09-09T07:26:43.482Z,4.70
2023-09-09T07:29:10.792Z,5.10
2023-09-09T07:31:39.417Z,5.07
2023-09-09T07:34:07.532Z,4.75
2023-09-09T07:36:34.450Z,5.35
2023-09-09T07:39:01.285Z,4.93
2023-09-09T07:41:27.912Z,5.75
2023-09-09T07:43:54.672Z,5.72
2023-09-09T07:46:21.832Z,5.22
2023-09-09T07:48:48.551Z,5.82
2023-09-09T07:51:15.487Z,5.65
2023-09-09T07:53:42.183Z,5.25
2023-09-09T07:56:08.823Z,5.07
2023-09-09T07:58:35.652Z,5.47
2023-09-09T08:01:08.055Z,5.45
2023-09-09T08:03:35.612Z,5.28
2023-09-09T08:06:03.830Z,6.00
2023-09-09T08:08:30.849Z,5.28
2023-09-09T08:10:57.542Z,5.32
2023-09-09T08:13:25.502Z,6.60
2023-09-09T08:15:52.547Z,5.40
2023-09-09T08:18:19.399Z,5.43
2023-09-09T08:20:50.886Z,5.97
2023-09-09T08:23:18.102Z,5.72
2023-09-09T08:25:44.806Z,5.93
2023-09-09T08:28:12.249Z,5.28
2023-09-09T08:30:39.044Z,5.05
2023-09-09T08:33:05.859Z,5.50
2023-09-09T08:35:33.639Z,5.43
2023-09-09T08:38:01.676Z,5.63
2023-09-09T08:40:28.933Z,5.80
2023-09-09T08:43:06.684Z,5.68
2023-09-09T08:45:42.120Z,5.40
2023-09-09T08:48:11.949Z,5.43
2023-09-09T08:50:42.236Z,5.93
2023-09-09T08:53:14.172Z,5.57
2023-09-09T08:55:42.300Z,6.43
2023-09-09T08:58:10.038Z,5.65
2023-09-09T09:00:39.259Z,5.55
2023-09-09T09:03:06.510Z,5.65
2023-09-09T09:05:34.883Z,4.85
2023-09-09T09:08:02.271Z,5.97
2023-09-09T09:10:29.194Z,5.53
2023-09-09T09:12:56.187Z,5.65
2023-09-09T09:15:23.140Z,5.35
2023-09-09T09:17:50.457Z,5.00
2023-09-09T09:20:34.688Z,5.22
2023-09-09T09:23:06.465Z,4.63
2023-09-09T09:25:38.742Z,5.03
2023-09-09T09:28:05.926Z,5.05
2023-09-09T09:30:34.540Z,5.15
2023-09-09T09:33:01.334Z,4.75
2023-09-09T09:35:30.357Z,4.38
2023-09-09T09:37:58.143Z,5.18
2023-09-09T09:40:26.173Z,5.05
2023-09-09T09:42:54.127Z,5.15
2023-09-09T09:45:31.643Z,5.15
2023-09-09T09:47:59.877Z,4.85
2023-09-09T09:50:34.498Z,4.97
2023-09-09T09:53:03.734Z,4.82
2023-09-09T09:55:32.625Z,4.68
2023-09-09T09:58:01.672Z,4.45
2023-09-09T10:00:28.913Z,4.72
2023-09-09T10:02:59.818Z,4.25
2023-09-09T10:05:29.300Z,4.97
2023-09-09T10:08:21.772Z,5.38
2023-09-09T10:11:06.774Z,4.70
2023-09-09T10:13:44.441Z,5.10
2023-09-09T10:16:15.569Z,4.78
2023-09-09T10:18:43.349Z,4.68
2023-09-09T10:21:11.690Z,4.88
2023-09-09T10:23:39.604Z,4.97
2023-09-09T10:26:08.537Z,4.88
2023-09-09T10:28:36.736Z,4.95
2023-09-09T10:31:05.498Z,5.47
2023-09-09T10:33:32.917Z,5.05
2023-09-09T10:36:00.173Z,4.80
2023-09-09T10:38:27.716Z,5.15
2023-09-09T10:40:55.456Z,5.70
2023-09-09T10:43:22.312Z,5.60
2023-09-09T10:45:51.753Z,5.15
2023-09-09T10:48:22.688Z,5.20
2023-09-09T10:50:54.791Z,5.07
2023-09-09T10:53:21.677Z,4.75
2023-09-09T10:55:48.992Z,5.43
2023-09-09T10:58:19.770Z,5.93
2023-09-09T11:00:48.496Z,5.65
2023-09-09T11:03:28.816Z,5.70
2023-09-09T11:05:59.960Z,5.60
2023-09-09T11:08:34.230Z,4.70
2023-09-09T11:11:08.978Z,4.65
2023-09-09T11:13:43.270Z,6.25
2023-09-09T11:16:40.586Z,4.88
2023-09-09T11:19:08.736Z,4.88
2023-09-09T11:21:39.597Z,4.78
2023-09-09T11:24:07.946Z,5.18
2023-09-09T11:26:47.979Z,5.05
2023-09-09T11:29:30.223Z,4.75
2023-09-09T11:32:04.192Z,5.32
2023-09-09T11:34:34.313Z,4.90
2023-09-09T11:37:02.498Z,5.30
2023-09-09T11:39:29.485Z,5.70
2023-09-09T11:41:56.513Z,5.03
2023-09-09T11:44:23.184Z,5.40
2023-09-09T11:46:52.780Z,5.22
2023-09-09T11:49:20.219Z,4.82
2023-09-09T11:51:47.578Z,4.53
2023-09-09T11:54:20.902Z,5.05
2023-09-09T11:56:48.234Z,5.32
2023-09-09T11:59:14.975Z,5.28
2023-09-09T12:01:43.786Z,4.93
2023-09-09T12:04:12.471Z,4.82
2023-09-09T12:06:43.120Z,4.32
2023-09-09T12:09:10.808Z,4.55
2023-09-09T12:11:39.980Z,4.15
2023-09-09T12:14:06.933Z,3.95
2023-09-09T12:16:35.686Z,4.47
2023-09-09T12:19:02.488Z,4.22
2023-09-09T12:21:30.980Z,4.18
2023-09-09T12:23:59.646Z,4.00
2023-09-09T12:26:27.645Z,4.35
2023-09-09T12:29:11.694Z,4.68
2023-09-09T12:31:52.139Z,4.03
2023-09-09T12:34:20.955Z,3.85
2023-09-09T12:36:49.345Z,4.22
2023-09-09T12:39:31.923Z,5.15
2023-09-09T12:41:59.985Z,4.15
2023-09-09T12:44:26.967Z,4.50
2023-09-09T12:46:54.738Z,4.40
2023-09-09T12:49:21.557Z,4.95
2023-09-09T12:51:48.199Z,4.47
2023-09-09T12:54:14.987Z,4.40
2023-09-09T12:56:41.796Z,3.80
2023-09-09T12:59:08.463Z,4.45
2023-09-09T13:01:35.214Z,5.25
2023-09-09T13:04:02.081Z,3.92
2023-09-09T13:06:28.977Z,4.05
2023-09-09T13:08:55.762Z,4.78
2023-09-09T13:11:23.252Z,4.40
2023-09-09T13:13:50.050Z,4.80
2023-09-09T13:16:17.853Z,4.72
2023-09-09T13:18:44.920Z,4.32
2023-09-09T13:21:11.608Z,4.63
2023-09-09T13:23:38.867Z,4.47
2023-09-09T13:26:05.853Z,4.72
2023-09-09T13:28:33.644Z,4.55
2023-09-09T13:31:01.647Z,4.55
2023-09-09T13:33:28.392Z,4.60
2023-09-09T13:35:55.297Z,4.43
2023-09-09T13:38:21.990Z,4.68
2023-09-09T13:40:48.886Z,3.80
2023-09-09T13:43:16.332Z,4.03
2023-09-09T13:45:43.220Z,4.15
2023-09-09T13:48:10.110Z,4.13
2023-09-09T13:50:36.784Z,4.95
2023-09-09T13:53:04.445Z,4.53
2023-09-09T13:55:31.253Z,4.57
2023-09-09T13:57:58.196Z,4.18
2023-09-09T14:00:25.032Z,4.05
2023-09-09T14:02:51.920Z,4.47
2023-09-09T14:05:18.727Z,3.65
2023-09-09T14:07:46.392Z,4.45
2023-09-09T14:10:13.423Z,3.40
2023-09-09T14:12:42.811Z,3.67
2023-09-09T14:15:11.345Z,3.83
2023-09-09T14:17:37.982Z,3.40
2023-09-09T14:20:06.102Z,3.85
2023-09-09T14:22:32.899Z,3.58
2023-09-09T14:24:59.534Z,4.10
2023-09-09T14:27:26.374Z,3.78
2023-09-09T14:29:54.408Z,3.97
2023-09-09T14:32:21.131Z,4.20
2023-09-09T14:34:48.408Z,3.72
2023-09-09T14:37:15.158Z,4.47
2023-09-09T14:39:41.819Z,3.83
2023-09-09T14:42:08.797Z,3.75
2023-09-09T14:44:35.527Z,3.90
2023-09-09T14:47:02.264Z,4.18
2023-09-09T14:49:29.659Z,4.05
2023-09-09T14:51:56.916Z,3.25
2023-09-09T14:54:23.601Z,3.65
2023-09-09T14:56:50.334Z,3.85
2023-09-09T14:59:17.068Z,4.72
2023-09-09T15:01:44.044Z,4.05
2023-09-09T15:04:11.338Z,3.78
2023-09-09T15:06:38.077Z,3.58
2023-09-09T15:09:05.638Z,3.67
2023-09-09T15:11:32.361Z,3.90
2023-09-09T15:14:00.890Z,3.95
2023-09-09T15:16:46.682Z,4.15
2023-09-09T15:19:14.158Z,3.55
2023-09-09T15:21:41.024Z,3.63
2023-09-09T15:24:08.257Z,3.72
2023-09-09T15:26:35.247Z,4.22
2023-09-09T15:29:02.049Z,3.65
2023-09-09T15:31:29.145Z,3.72
2023-09-09T15:33:56.052Z,4.00
2023-09-09T15:36:23.003Z,3.75
2023-09-09T15:38:49.654Z,3.67
2023-09-09T15:41:16.650Z,3.75
2023-09-09T15:43:48.034Z,4.03
2023-09-09T15:46:15.117Z,3.38
2023-09-09T15:48:41.965Z,3.75
2023-09-09T15:51:08.847Z,4.63
2023-09-09T15:53:35.576Z,3.35
2023-09-09T15:56:04.212Z,4.20
2023-09-09T15:58:31.119Z,3.70
2023-09-09T16:01:01.008Z,3.83
2023-09-09T16:03:27.769Z,4.05
2023-09-09T16:06:01.191Z,4.22
2023-09-09T16:08:27.884Z,3.53
2023-09-09T16:10:57.534Z,3.90
2023-09-09T16:13:27.976Z,3.72
2023-09-09T16:16:02.755Z,3.92
2023-09-09T16:18:31.263Z,4.07
2023-09-09T16:20:59.146Z,4.32
2023-09-09T16:23:25.963Z,3.83
2023-09-09T16:25:54.264Z,4.15
2023-09-09T16:28:22.244Z,3.83
2023-09-09T16:30:49.278Z,3.67
2023-09-09T16:33:17.759Z,3.95
2023-09-09T16:35:45.531Z,3.60
2023-09-09T16:38:12.959Z,3.55
2023-09-09T16:40:40.577Z,4.10
2023-09-09T16:43:07.551Z,4.00
2023-09-09T16:45:34.637Z,3.53
2023-09-09T16:48:04.847Z,3.70
2023-09-09T16:50:31.818Z,3.92
2023-09-09T16:52:59.036Z,3.88
2023-09-09T16:55:26.901Z,4.40
2023-09-09T16:57:54.184Z,3.35
2023-09-09T17:00:21.455Z,3.92
2023-09-09T17:02:48.685Z,3.38
2023-09-09T17:05:15.535Z,3.38
2023-09-09T17:07:42.311Z,4.32
2023-09-09T17:10:10.547Z,4.63
2023-09-09T17:12:37.454Z,4.45
2023-09-09T17:15:04.440Z,4.50
2023-09-09T17:17:31.369Z,4.07
2023-09-09T17:19:58.359Z,3.95
2023-09-09T17:22:25.625Z,4.07
2023-09-09T17:24:52.312Z,4.15
2023-09-09T17:27:19.169Z,3.95
2023-09-09T17:29:45.940Z,4.05
2023-09-09T17:32:13.184Z,3.83
2023-09-09T17:34:42.043Z,3.78
2023-09-09T17:37:09.766Z,3.80
2023-09-09T17:39:36.733Z,3.92
2023-09-09T17:42:03.516Z,3.78
2023-09-09T17:44:30.234Z,3.90
2023-09-09T17:46:57.433Z,3.83
2023-09-09T17:49:27.028Z,3.42
2023-09-09T17:51:55.453Z,3.53
2023-09-09T17:54:26.759Z,3.97
2023-09-09T17:56:57.125Z,3.40
2023-09-09T17:59:24.107Z,3.10
2023-09-09T18:01:50.950Z,3.22
2023-09-09T18:04:19.565Z,3.15
2023-09-09T18:06:48.461Z,3.45
2023-09-09T18:09:15.496Z,3.30
2023-09-09T18:11:43.361Z,3.47
2023-09-09T18:14:10.103Z,3.42
2023-09-09T18:16:36.935Z,3.30
2023-09-09T18:19:03.930Z,3.33
2023-09-09T18:21:30.712Z,3.28
2023-09-09T18:23:57.781Z,3.30
2023-09-09T18:26:24.819Z,3.13
2023-09-09T18:28:52.031Z,3.10
2023-09-09T18:31:20.554Z,3.22
2023-09-09T18:33:47.979Z,3.08
2023-09-09T18:36:15.251Z,3.42
2023-09-09T18:38:43.549Z,3.40
2023-09-09T18:41:11.368Z,3.13
2023-09-09T18:43:38.307Z,3.33
2023-09-09T18:46:06.623Z,2.53
2023-09-09T18:48:33.974Z,2.97
2023-09-09T18:51:03.278Z,3.22
2023-09-09T18:53:32.035Z,3.08
2023-09-09T18:55:59.166Z,3.00
2023-09-09T18:58:26.094Z,3.03
2023-09-09T19:00:53.612Z,2.95
2023-09-09T19:03:23.129Z,2.90
2023-09-09T19:05:51.061Z,3.05
2023-09-09T19:08:18.393Z,2.80
2023-09-09T19:10:45.309Z,3.35
2023-09-09T19:13:15.245Z,3.25
2023-09-09T19:15:42.240Z,3.33
2023-09-09T19:18:09.387Z,3.38
2023-09-09T19:20:36.922Z,3.85
2023-09-09T19:23:04.641Z,3.03
2023-09-09T19:25:33.694Z,3.03
2023-09-09T19:28:02.058Z,2.72
2023-09-09T19:30:28.915Z,3.17
2023-09-09T19:32:55.891Z,2.80
2023-09-09T19:35:22.916Z,3.15
2023-09-09T19:37:51.781Z,2.92
2023-09-09T19:40:20.028Z,2.95
2023-09-09T19:42:46.728Z,2.72
2023-09-09T19:45:14.979Z,2.88
2023-09-09T19:47:41.937Z,3.20
2023-09-09T19:50:09.563Z,2.50
2023-09-09T19:52:36.583Z,2.70
2023-09-09T19:55:03.746Z,3.05
2023-09-09T19:57:30.522Z,2.58
2023-09-09T19:59:57.911Z,2.53
2023-09-09T20:02:24.723Z,2.60
2023-09-09T20:04:51.954Z,2.80
2023-09-09T20:07:18.755Z,3.03
2023-09-09T20:09:49.546Z,2.90
2023-09-09T20:12:16.693Z,2.67
2023-09-09T20:14:45.585Z,3.05
2023-09-09T20:17:14.701Z,3.35
2023-09-09T20:19:44.369Z,2.67
2023-09-09T20:22:11.500Z,2.83
2023-09-09T20:24:38.215Z,2.50
2023-09-09T20:27:05.351Z,2.42
2023-09-09T20:29:32.292Z,2.65
2023-09-09T20:31:59.451Z,2.97
2023-09-09T20:34:26.611Z,2.63
2023-09-09T20:36:53.632Z,2.72
2023-09-09T20:39:22.339Z,2.40
2023-09-09T20:41:50.902Z,2.33
2023-09-09T20:44:17.700Z,2.70
2023-09-09T20:46:47.847Z,3.03
2023-09-09T20:49:14.910Z,2.65
2023-09-09T20:51:41.846Z,2.80
2023-09-09T20:54:08.664Z,2.85
2023-09-09T20:56:35.452Z,2.45
2023-09-09T20:59:02.381Z,2.55
2023-09-09T21:01:34.682Z,2.45
2023-09-09T21:04:01.773Z,2.72
2023-09-09T21:06:28.671Z,2.47
2023-09-09T21:08:55.324Z,2.38
2023-09-09T21:11:22.436Z,2.97
2023-09-09T21:13:49.364Z,2.67
2023-09-09T21:16:16.355Z,2.78
2023-09-09T21:18:44.630Z,2.70
2023-09-09T21:21:11.477Z,2.90
2023-09-09T21:23:38.283Z,3.22
2023-09-09T21:26:05.496Z,3.47
2023-09-09T21:28:32.365Z,3.25
2023-09-09T21:30:59.397Z,2.85
2023-09-09T21:33:26.657Z,3.15
2023-09-09T21:35:56.042Z,3.22
2023-09-09T21:38:22.944Z,3.03
2023-09-09T21:40:49.821Z,3.33
2023-09-09T21:43:18.235Z,3.35
2023-09-09T21:45:45.110Z,3.20
2023-09-09T21:48:12.276Z,3.05
2023-09-09T21:50:39.281Z,2.63
2023-09-09T21:53:06.386Z,2.90
2023-09-09T21:55:33.164Z,2.97
2023-09-09T21:57:59.873Z,3.05
2023-09-09T22:00:27.708Z,2.90
2023-09-09T22:02:54.858Z,2.78
2023-09-09T22:05:21.571Z,2.97
2023-09-09T22:07:48.463Z,2.90
2023-09-09T22:10:15.564Z,3.08
2023-09-09T22:12:42.672Z,2.92
2023-09-09T22:15:11.518Z,3.08
2023-09-09T22:17:39.455Z,2.88
2023-09-09T22:20:12.784Z,3.13
2023-09-09T22:22:41.420Z,2.60
2023-09-09T22:25:15.758Z,2.92
2023-09-09T22:27:42.632Z,3.47
2023-09-09T22:30:10.359Z,3.58
2023-09-09T22:32:37.210Z,3.25
2023-09-09T22:35:07.215Z,3.25
2023-09-09T22:37:35.642Z,3.17
2023-09-09T22:40:02.769Z,3.13
2023-09-09T22:42:29.886Z,3.28
2023-09-09T22:44:56.930Z,3.15
2023-09-09T22:47:23.922Z,3.00
2023-09-09T22:49:52.441Z,2.90
2023-09-09T22:52:20.152Z,2.85
2023-09-09T22:54:46.910Z,2.95
2023-09-09T22:57:14.729Z,3.00
2023-09-09T22:59:41.506Z,2.88
2023-09-09T23:02:08.733Z,3.15
2023-09-09T23:04:35.765Z,2.90
2023-09-09T23:07:02.521Z,2.80
2023-09-09T23:09:29.415Z,2.97
2023-09-09T23:11:56.136Z,3.72
2023-09-09T23:14:24.076Z,3.22
2023-09-09T23:16:51.213Z,2.90
2023-09-09T23:19:18.262Z,3.28
2023-09-09T23:21:45.338Z,2.78
2023-09-09T23:24:12.273Z,3.25
2023-09-09T23:26:39.209Z,3.08
2023-09-09T23:29:06.636Z,3.25
2023-09-09T23:31:34.585Z,2.95
2023-09-09T23:34:03.181Z,3.13
2023-09-09T23:36:30.472Z,4.13
2023-09-09T23:39:05.122Z,3.10
2023-09-09T23:41:32.121Z,3.22
2023-09-09T23:43:59.005Z,3.70
2023-09-09T23:46:26.238Z,3.42
2023-09-09T23:48:53.558Z,2.97
2023-09-09T23:51:20.690Z,3.55
2023-09-09T23:53:47.984Z,3.25
2023-09-09T23:56:14.743Z,3.65
2023-09-09T23:58:41.594Z,3.42
